sensor_id;sensor_type;location;lat;lon;timestamp;temperature;humidity
54558;DHT22;40452;50.080;20.040;2022-10-31T06:26:47;20.00;56.90
54558;DHT22;40452;50.080;20.040;2022-10-31T06:29:12;20.60;56.00
54558;DHT22;40452;50.080;20.040;2022-10-31T06:31:38;20.70;55.90
54558;DHT22;40452;50.080;20.040;2022-10-31T06:34:03;20.70;55.80
54558;DHT22;40452;50.080;20.040;2022-10-31T06:36:29;20.70;55.90
54558;DHT22;40452;50.080;20.040;2022-10-31T06:38:54;20.70;56.00
54558;DHT22;40452;50.080;20.040;2022-10-31T06:41:20;20.70;56.10
54558;DHT22;40452;50.080;20.040;2022-10-31T06:43:46;20.70;56.30
54558;DHT22;40452;50.080;20.040;2022-10-31T06:46:12;20.70;56.30
54558;DHT22;40452;50.080;20.040;2022-10-31T06:48:39;20.70;56.40
54558;DHT22;40452;50.080;20.040;2022-10-31T06:51:05;20.70;56.40
54558;DHT22;40452;50.080;20.040;2022-10-31T06:53:30;20.70;56.40
54558;DHT22;40452;50.080;20.040;2022-10-31T06:55:56;20.70;56.50
54558;DHT22;40452;50.080;20.040;2022-10-31T06:58:22;20.70;56.50
54558;DHT22;40452;50.080;20.040;2022-10-31T07:00:47;20.80;56.70
54558;DHT22;40452;50.080;20.040;2022-10-31T07:03:14;20.80;56.70
54558;DHT22;40452;50.080;20.040;2022-10-31T07:05:41;20.80;56.80
54558;DHT22;40452;50.080;20.040;2022-10-31T07:08:12;20.80;56.70
54558;DHT22;40452;50.080;20.040;2022-10-31T07:10:39;20.80;56.80
54558;DHT22;40452;50.080;20.040;2022-10-31T07:13:08;20.80;56.50
54558;DHT22;40452;50.080;20.040;2022-10-31T07:15:36;20.80;56.10
54558;DHT22;40452;50.080;20.040;2022-10-31T07:18:03;20.70;56.40
54558;DHT22;40452;50.080;20.040;2022-10-31T07:20:29;20.80;56.50
54558;DHT22;40452;50.080;20.040;2022-10-31T07:22:55;20.70;56.40
54558;DHT22;40452;50.080;20.040;2022-10-31T07:25:21;20.70;56.40
54558;DHT22;40452;50.080;20.040;2022-10-31T07:27:47;20.70;56.50
54558;DHT22;40452;50.080;20.040;2022-10-31T07:30:13;20.70;56.40
54558;DHT22;40452;50.080;20.040;2022-10-31T07:32:52;20.70;56.40
54558;DHT22;40452;50.080;20.040;2022-10-31T07:35:20;20.70;56.50
54558;DHT22;40452;50.080;20.040;2022-10-31T07:37:46;20.70;56.70
54558;DHT22;40452;50.080;20.040;2022-10-31T07:40:12;20.80;57.00
54558;DHT22;40452;50.080;20.040;2022-10-31T07:42:42;20.80;57.10
54558;DHT22;40452;50.080;20.040;2022-10-31T07:45:12;20.80;57.10
54558;DHT22;40452;50.080;20.040;2022-10-31T07:50:09;20.90;56.90
54558;DHT22;40452;50.080;20.040;2022-10-31T07:52:34;20.80;57.70
54558;DHT22;40452;50.080;20.040;2022-10-31T07:55:00;20.90;57.00
54558;DHT22;40452;50.080;20.040;2022-10-31T07:57:26;20.90;57.10
54558;DHT22;40452;50.080;20.040;2022-10-31T07:59:51;20.90;57.10
54558;DHT22;40452;50.080;20.040;2022-10-31T08:02:17;20.90;57.00
54558;DHT22;40452;50.080;20.040;2022-10-31T08:04:42;20.90;56.80
54558;DHT22;40452;50.080;20.040;2022-10-31T08:07:08;21.00;56.90
54558;DHT22;40452;50.080;20.040;2022-10-31T08:09:33;21.00;56.80
54558;DHT22;40452;50.080;20.040;2022-10-31T08:11:59;21.00;56.80
54558;DHT22;40452;50.080;20.040;2022-10-31T08:14:24;21.00;56.80
54558;DHT22;40452;50.080;20.040;2022-10-31T08:16:50;21.00;56.80
54558;DHT22;40452;50.080;20.040;2022-10-31T08:19:17;21.00;56.80
54558;DHT22;40452;50.080;20.040;2022-10-31T08:21:42;21.00;56.70
54558;DHT22;40452;50.080;20.040;2022-10-31T08:24:08;21.00;56.70
54558;DHT22;40452;50.080;20.040;2022-10-31T08:26:33;21.00;56.70
54558;DHT22;40452;50.080;20.040;2022-10-31T08:28:59;21.10;56.70
54558;DHT22;40452;50.080;20.040;2022-10-31T08:31:25;21.10;57.30
54558;DHT22;40452;50.080;20.040;2022-10-31T08:33:52;21.10;56.70
54558;DHT22;40452;50.080;20.040;2022-10-31T08:36:19;21.10;56.70
54558;DHT22;40452;50.080;20.040;2022-10-31T08:38:46;21.10;56.70
54558;DHT22;40452;50.080;20.040;2022-10-31T08:41:11;21.10;56.50
54558;DHT22;40452;50.080;20.040;2022-10-31T08:43:37;21.10;56.50
54558;DHT22;40452;50.080;20.040;2022-10-31T08:46:02;21.10;56.40
54558;DHT22;40452;50.080;20.040;2022-10-31T08:48:28;21.10;56.40
54558;DHT22;40452;50.080;20.040;2022-10-31T08:50:56;21.20;56.20
54558;DHT22;40452;50.080;20.040;2022-10-31T08:53:23;21.20;56.20
54558;DHT22;40452;50.080;20.040;2022-10-31T08:55:49;21.10;56.10
54558;DHT22;40452;50.080;20.040;2022-10-31T08:58:19;21.10;56.10
54558;DHT22;40452;50.080;20.040;2022-10-31T09:00:46;21.10;56.10
54558;DHT22;40452;50.080;20.040;2022-10-31T09:03:17;21.10;56.00
54558;DHT22;40452;50.080;20.040;2022-10-31T09:05:43;21.10;56.00
54558;DHT22;40452;50.080;20.040;2022-10-31T09:08:09;21.10;55.90
54558;DHT22;40452;50.080;20.040;2022-10-31T09:10:35;21.20;56.10
54558;DHT22;40452;50.080;20.040;2022-10-31T09:13:10;21.20;56.30
54558;DHT22;40452;50.080;20.040;2022-10-31T09:15:38;21.20;56.20
54558;DHT22;40452;50.080;20.040;2022-10-31T09:18:05;21.20;56.20
54558;DHT22;40452;50.080;20.040;2022-10-31T09:20:32;21.20;56.20
54558;DHT22;40452;50.080;20.040;2022-10-31T09:23:00;21.20;56.10
54558;DHT22;40452;50.080;20.040;2022-10-31T09:25:27;21.20;56.10
54558;DHT22;40452;50.080;20.040;2022-10-31T09:27:56;21.20;56.10
54558;DHT22;40452;50.080;20.040;2022-10-31T09:30:24;21.20;56.10
54558;DHT22;40452;50.080;20.040;2022-10-31T09:32:55;21.20;56.00
54558;DHT22;40452;50.080;20.040;2022-10-31T09:35:21;21.20;56.00
54558;DHT22;40452;50.080;20.040;2022-10-31T09:37:46;21.20;55.90
54558;DHT22;40452;50.080;20.040;2022-10-31T09:40:12;21.20;56.70
54558;DHT22;40452;50.080;20.040;2022-10-31T09:42:54;21.20;56.00
54558;DHT22;40452;50.080;20.040;2022-10-31T09:45:29;21.20;56.00
54558;DHT22;40452;50.080;20.040;2022-10-31T09:50:43;21.20;56.20
54558;DHT22;40452;50.080;20.040;2022-10-31T09:53:26;21.20;56.10
54558;DHT22;40452;50.080;20.040;2022-10-31T09:55:53;21.20;56.20
54558;DHT22;40452;50.080;20.040;2022-10-31T09:58:27;21.20;56.20
54558;DHT22;40452;50.080;20.040;2022-10-31T10:00:56;21.20;56.20
54558;DHT22;40452;50.080;20.040;2022-10-31T10:03:47;21.20;56.20
54558;DHT22;40452;50.080;20.040;2022-10-31T10:06:18;21.20;56.30
54558;DHT22;40452;50.080;20.040;2022-10-31T10:08:44;21.20;56.50
54558;DHT22;40452;50.080;20.040;2022-10-31T10:19:57;21.20;56.60
54558;DHT22;40452;50.080;20.040;2022-10-31T10:25:22;21.20;56.60
54558;DHT22;40452;50.080;20.040;2022-10-31T10:28:04;21.20;56.70
54558;DHT22;40452;50.080;20.040;2022-10-31T10:30:55;21.20;56.60
54558;DHT22;40452;50.080;20.040;2022-10-31T10:33:31;21.20;56.50
54558;DHT22;40452;50.080;20.040;2022-10-31T10:36:54;21.20;56.50
54558;DHT22;40452;50.080;20.040;2022-10-31T10:38:58;21.20;56.50
54558;DHT22;40452;50.080;20.040;2022-10-31T10:41:28;21.20;56.50
54558;DHT22;40452;50.080;20.040;2022-10-31T10:43:55;21.20;56.50
54558;DHT22;40452;50.080;20.040;2022-10-31T10:49:24;21.30;56.60
54558;DHT22;40452;50.080;20.040;2022-10-31T10:52:05;21.30;56.60
54558;DHT22;40452;50.080;20.040;2022-10-31T11:02:44;21.20;56.50
54558;DHT22;40452;50.080;20.040;2022-10-31T11:05:57;21.20;56.50
54558;DHT22;40452;50.080;20.040;2022-10-31T11:08:05;21.20;56.50
54558;DHT22;40452;50.080;20.040;2022-10-31T11:10:32;21.20;56.50
54558;DHT22;40452;50.080;20.040;2022-10-31T11:16:02;21.20;56.50
54558;DHT22;40452;50.080;20.040;2022-10-31T11:18:31;21.20;56.50
54558;DHT22;40452;50.080;20.040;2022-10-31T11:21:01;21.20;56.50
54558;DHT22;40452;50.080;20.040;2022-10-31T11:23:28;21.20;56.50
54558;DHT22;40452;50.080;20.040;2022-10-31T11:28:21;21.30;56.60
54558;DHT22;40452;50.080;20.040;2022-10-31T11:31:13;21.30;56.60
54558;DHT22;40452;50.080;20.040;2022-10-31T11:34:00;21.30;56.80
54558;DHT22;40452;50.080;20.040;2022-10-31T11:36:30;21.30;56.80
54558;DHT22;40452;50.080;20.040;2022-10-31T11:38:58;21.30;56.80
54558;DHT22;40452;50.080;20.040;2022-10-31T11:41:30;21.30;57.00
54558;DHT22;40452;50.080;20.040;2022-10-31T11:43:59;21.30;57.10
54558;DHT22;40452;50.080;20.040;2022-10-31T11:46:38;21.30;57.20
54558;DHT22;40452;50.080;20.040;2022-10-31T11:49:06;21.30;57.50
54558;DHT22;40452;50.080;20.040;2022-10-31T11:51:37;21.30;58.10
54558;DHT22;40452;50.080;20.040;2022-10-31T11:54:04;21.30;58.50
54558;DHT22;40452;50.080;20.040;2022-10-31T11:56:42;21.30;58.80
54558;DHT22;40452;50.080;20.040;2022-10-31T11:59:31;21.30;58.60
54558;DHT22;40452;50.080;20.040;2022-10-31T12:02:00;21.30;58.50
54558;DHT22;40452;50.080;20.040;2022-10-31T12:04:39;21.30;58.50
54558;DHT22;40452;50.080;20.040;2022-10-31T12:07:05;21.30;58.30
54558;DHT22;40452;50.080;20.040;2022-10-31T12:09:34;21.30;58.20
54558;DHT22;40452;50.080;20.040;2022-10-31T12:12:07;21.30;58.20
54558;DHT22;40452;50.080;20.040;2022-10-31T12:15:00;21.30;58.10
54558;DHT22;40452;50.080;20.040;2022-10-31T12:17:57;21.30;58.10
54558;DHT22;40452;50.080;20.040;2022-10-31T12:20:27;21.30;58.10
54558;DHT22;40452;50.080;20.040;2022-10-31T12:23:09;21.30;58.10
54558;DHT22;40452;50.080;20.040;2022-10-31T12:26:05;21.30;58.10
54558;DHT22;40452;50.080;20.040;2022-10-31T12:31:54;21.30;58.20
54558;DHT22;40452;50.080;20.040;2022-10-31T12:48:19;21.30;58.30
54558;DHT22;40452;50.080;20.040;2022-10-31T12:59:30;21.30;58.40
54558;DHT22;40452;50.080;20.040;2022-10-31T13:02:02;21.30;58.20
54558;DHT22;40452;50.080;20.040;2022-10-31T13:04:44;21.30;58.30
54558;DHT22;40452;50.080;20.040;2022-10-31T13:12:39;21.30;59.10
54558;DHT22;40452;50.080;20.040;2022-10-31T13:17:42;21.30;59.40
54558;DHT22;40452;50.080;20.040;2022-10-31T13:20:19;21.30;59.70
54558;DHT22;40452;50.080;20.040;2022-10-31T13:22:48;21.30;59.70
54558;DHT22;40452;50.080;20.040;2022-10-31T13:25:33;21.30;59.70
54558;DHT22;40452;50.080;20.040;2022-10-31T13:28:05;21.30;59.40
54558;DHT22;40452;50.080;20.040;2022-10-31T13:30:39;21.40;59.60
54558;DHT22;40452;50.080;20.040;2022-10-31T13:33:13;21.30;59.50
54558;DHT22;40452;50.080;20.040;2022-10-31T13:39:03;21.40;59.20
54558;DHT22;40452;50.080;20.040;2022-10-31T13:41:47;21.40;58.90
54558;DHT22;40452;50.080;20.040;2022-10-31T13:44:15;21.40;59.00
54558;DHT22;40452;50.080;20.040;2022-10-31T13:46:42;21.40;58.80
54558;DHT22;40452;50.080;20.040;2022-10-31T13:54:37;21.40;58.60
54558;DHT22;40452;50.080;20.040;2022-10-31T13:57:13;21.40;58.50
54558;DHT22;40452;50.080;20.040;2022-10-31T14:00:28;21.40;58.40
54558;DHT22;40452;50.080;20.040;2022-10-31T14:02:36;21.40;58.30
54558;DHT22;40452;50.080;20.040;2022-10-31T14:07:54;21.30;58.10
54558;DHT22;40452;50.080;20.040;2022-10-31T14:10:27;21.40;58.20
54558;DHT22;40452;50.080;20.040;2022-10-31T14:13:03;21.30;58.20
54558;DHT22;40452;50.080;20.040;2022-10-31T14:15:29;21.30;58.40
54558;DHT22;40452;50.080;20.040;2022-10-31T14:17:58;21.30;58.50
54558;DHT22;40452;50.080;20.040;2022-10-31T14:20:38;21.40;58.60
54558;DHT22;40452;50.080;20.040;2022-10-31T14:23:39;21.30;58.80
54558;DHT22;40452;50.080;20.040;2022-10-31T14:28:43;21.40;58.80
54558;DHT22;40452;50.080;20.040;2022-10-31T14:34:39;21.40;58.60
54558;DHT22;40452;50.080;20.040;2022-10-31T18:33:03;20.80;57.90
54558;DHT22;40452;50.080;20.040;2022-10-31T18:35:29;21.10;58.10
54558;DHT22;40452;50.080;20.040;2022-10-31T18:37:56;21.20;57.50
54558;DHT22;40452;50.080;20.040;2022-10-31T18:40:21;21.20;57.30
54558;DHT22;40452;50.080;20.040;2022-10-31T18:42:47;21.20;57.40
54558;DHT22;40452;50.080;20.040;2022-10-31T18:45:12;21.20;57.50
54558;DHT22;40452;50.080;20.040;2022-10-31T18:47:38;21.20;57.70
54558;DHT22;40452;50.080;20.040;2022-10-31T18:50:04;21.30;58.10
54558;DHT22;40452;50.080;20.040;2022-10-31T18:52:31;21.30;58.10
54558;DHT22;40452;50.080;20.040;2022-10-31T18:54:56;21.30;58.20
54558;DHT22;40452;50.080;20.040;2022-10-31T18:57:22;21.30;58.10
54558;DHT22;40452;50.080;20.040;2022-10-31T18:59:47;21.30;58.10
54558;DHT22;40452;50.080;20.040;2022-10-31T19:02:13;21.30;57.90
54558;DHT22;40452;50.080;20.040;2022-10-31T19:04:42;21.30;58.10
54558;DHT22;40452;50.080;20.040;2022-10-31T19:07:07;21.30;58.00
54558;DHT22;40452;50.080;20.040;2022-10-31T19:09:33;21.40;58.00
54558;DHT22;40452;50.080;20.040;2022-10-31T19:11:59;21.40;57.80
54558;DHT22;40452;50.080;20.040;2022-10-31T19:14:24;21.40;58.60
54558;DHT22;40452;50.080;20.040;2022-10-31T19:16:50;21.40;58.00
54558;DHT22;40452;50.080;20.040;2022-10-31T19:19:15;21.30;57.80
54558;DHT22;40452;50.080;20.040;2022-10-31T19:21:41;21.40;57.80
54558;DHT22;40452;50.080;20.040;2022-10-31T19:24:08;21.40;58.00
54558;DHT22;40452;50.080;20.040;2022-10-31T19:26:33;21.40;57.90
54558;DHT22;40452;50.080;20.040;2022-10-31T19:28:59;21.40;57.90
54558;DHT22;40452;50.080;20.040;2022-10-31T19:31:25;21.40;57.80
54558;DHT22;40452;50.080;20.040;2022-10-31T19:33:50;21.40;58.50
54558;DHT22;40452;50.080;20.040;2022-10-31T19:36:17;21.40;57.80
54558;DHT22;40452;50.080;20.040;2022-10-31T19:38:45;21.40;57.80
54558;DHT22;40452;50.080;20.040;2022-10-31T19:41:21;21.40;57.70
54558;DHT22;40452;50.080;20.040;2022-10-31T19:43:47;21.40;57.60
54558;DHT22;40452;50.080;20.040;2022-10-31T19:46:14;21.30;57.10
54558;DHT22;40452;50.080;20.040;2022-10-31T19:48:40;21.30;57.20
54558;DHT22;40452;50.080;20.040;2022-10-31T19:51:18;21.30;57.30
54558;DHT22;40452;50.080;20.040;2022-10-31T19:53:43;21.30;56.80
54558;DHT22;40452;50.080;20.040;2022-10-31T19:56:17;21.10;56.10
54558;DHT22;40452;50.080;20.040;2022-10-31T19:58:44;21.10;57.00
54558;DHT22;40452;50.080;20.040;2022-10-31T20:01:21;21.10;57.20
54558;DHT22;40452;50.080;20.040;2022-10-31T20:03:48;21.10;57.30
54558;DHT22;40452;50.080;20.040;2022-10-31T20:06:31;21.10;57.20
54558;DHT22;40452;50.080;20.040;2022-10-31T20:08:57;21.00;57.20
54558;DHT22;40452;50.080;20.040;2022-10-31T20:11:24;21.10;57.10
54558;DHT22;40452;50.080;20.040;2022-10-31T20:13:50;21.00;57.00
54558;DHT22;40452;50.080;20.040;2022-10-31T20:16:16;21.00;57.00
54558;DHT22;40452;50.080;20.040;2022-10-31T20:18:42;21.00;56.90
54558;DHT22;40452;50.080;20.040;2022-10-31T20:21:11;21.00;57.00
54558;DHT22;40452;50.080;20.040;2022-10-31T20:23:37;21.00;57.10
54558;DHT22;40452;50.080;20.040;2022-10-31T20:26:04;20.90;56.90
54558;DHT22;40452;50.080;20.040;2022-10-31T20:28:31;20.90;56.90
54558;DHT22;40452;50.080;20.040;2022-10-31T20:30:58;20.90;56.70
54558;DHT22;40452;50.080;20.040;2022-10-31T20:33:23;20.90;56.70
54558;DHT22;40452;50.080;20.040;2022-10-31T20:35:49;20.90;56.70
54558;DHT22;40452;50.080;20.040;2022-10-31T20:38:15;20.90;56.60
54558;DHT22;40452;50.080;20.040;2022-10-31T20:40:40;20.90;56.60
54558;DHT22;40452;50.080;20.040;2022-10-31T20:43:06;20.90;56.50
54558;DHT22;40452;50.080;20.040;2022-10-31T20:45:32;20.90;56.50
54558;DHT22;40452;50.080;20.040;2022-10-31T20:47:58;20.90;56.50
54558;DHT22;40452;50.080;20.040;2022-10-31T20:50:24;20.80;56.50
54558;DHT22;40452;50.080;20.040;2022-10-31T20:52:50;20.90;56.30
54558;DHT22;40452;50.080;20.040;2022-10-31T20:55:16;20.80;56.40
54558;DHT22;40452;50.080;20.040;2022-10-31T20:57:41;20.80;56.30
54558;DHT22;40452;50.080;20.040;2022-10-31T21:00:08;20.80;56.00
54558;DHT22;40452;50.080;20.040;2022-10-31T21:02:38;20.80;56.00
54558;DHT22;40452;50.080;20.040;2022-10-31T21:05:07;20.80;56.50
54558;DHT22;40452;50.080;20.040;2022-10-31T21:07:33;20.80;56.20
54558;DHT22;40452;50.080;20.040;2022-10-31T21:09:58;20.80;56.10
54558;DHT22;40452;50.080;20.040;2022-10-31T21:12:24;20.80;56.00
54558;DHT22;40452;50.080;20.040;2022-10-31T21:14:49;20.80;56.00
54558;DHT22;40452;50.080;20.040;2022-10-31T21:17:15;20.70;55.80
54558;DHT22;40452;50.080;20.040;2022-10-31T21:19:40;20.70;55.70
54558;DHT22;40452;50.080;20.040;2022-10-31T21:22:06;20.70;55.70
54558;DHT22;40452;50.080;20.040;2022-10-31T21:24:31;20.70;55.70
54558;DHT22;40452;50.080;20.040;2022-10-31T21:26:57;20.70;55.60
54558;DHT22;40452;50.080;20.040;2022-10-31T21:29:22;20.70;55.50
54558;DHT22;40452;50.080;20.040;2022-10-31T21:31:48;20.70;55.50
54558;DHT22;40452;50.080;20.040;2022-10-31T21:34:14;20.70;55.30
54558;DHT22;40452;50.080;20.040;2022-10-31T21:36:40;20.70;55.40
54558;DHT22;40452;50.080;20.040;2022-10-31T21:39:07;20.60;55.30
54558;DHT22;40452;50.080;20.040;2022-10-31T21:41:33;20.60;55.10
54558;DHT22;40452;50.080;20.040;2022-10-31T21:43:59;20.60;55.20
54558;DHT22;40452;50.080;20.040;2022-10-31T21:46:27;20.60;54.40
54558;DHT22;40452;50.080;20.040;2022-10-31T21:48:53;20.40;53.60
54558;DHT22;40452;50.080;20.040;2022-10-31T21:51:21;20.30;53.80
54558;DHT22;40452;50.080;20.040;2022-10-31T21:53:47;20.30;54.00
54558;DHT22;40452;50.080;20.040;2022-10-31T21:56:32;20.30;54.80
54558;DHT22;40452;50.080;20.040;2022-10-31T21:58:58;20.40;55.20
54558;DHT22;40452;50.080;20.040;2022-10-31T22:01:25;20.50;55.10
54558;DHT22;40452;50.080;20.040;2022-10-31T22:03:51;20.50;55.30
54558;DHT22;40452;50.080;20.040;2022-10-31T22:06:17;20.50;55.10
54558;DHT22;40452;50.080;20.040;2022-10-31T22:08:43;20.50;54.60
54558;DHT22;40452;50.080;20.040;2022-10-31T22:11:10;20.40;54.30
54558;DHT22;40452;50.080;20.040;2022-10-31T22:13:40;20.40;54.20
54558;DHT22;40452;50.080;20.040;2022-10-31T22:16:11;20.40;54.80
54558;DHT22;40452;50.080;20.040;2022-10-31T22:18:38;20.50;55.80
54558;DHT22;40452;50.080;20.040;2022-10-31T22:23:31;20.60;56.30
54558;DHT22;40452;50.080;20.040;2022-10-31T22:26:02;20.70;56.30
54558;DHT22;40452;50.080;20.040;2022-10-31T22:28:29;20.70;55.90
54558;DHT22;40452;50.080;20.040;2022-10-31T22:30:55;20.70;55.80
54558;DHT22;40452;50.080;20.040;2022-10-31T22:33:20;20.70;55.60
54558;DHT22;40452;50.080;20.040;2022-10-31T22:35:46;20.70;55.70
54558;DHT22;40452;50.080;20.040;2022-10-31T22:38:11;20.80;55.50
54558;DHT22;40452;50.080;20.040;2022-10-31T22:40:37;20.80;55.60
54558;DHT22;40452;50.080;20.040;2022-10-31T22:43:02;20.80;55.40
54558;DHT22;40452;50.080;20.040;2022-10-31T22:45:28;20.80;55.40
54558;DHT22;40452;50.080;20.040;2022-10-31T22:47:53;20.80;55.50
54558;DHT22;40452;50.080;20.040;2022-10-31T22:50:19;20.80;55.30
54558;DHT22;40452;50.080;20.040;2022-10-31T22:52:44;20.80;55.20
54558;DHT22;40452;50.080;20.040;2022-10-31T22:55:10;20.80;55.30
54558;DHT22;40452;50.080;20.040;2022-10-31T22:57:35;20.80;55.20
54558;DHT22;40452;50.080;20.040;2022-10-31T23:00:01;20.80;55.20
54558;DHT22;40452;50.080;20.040;2022-10-31T23:02:27;20.80;55.20
54558;DHT22;40452;50.080;20.040;2022-10-31T23:04:52;20.80;55.20
